createdAt,value
2023-11-03T00:00:52.123Z,34.83
2023-11-03T00:03:20.968Z,34.61
2023-11-03T00:05:49.466Z,34.28
2023-11-03T00:08:18.573Z,34.70
2023-11-03T00:10:47.058Z,34.00
2023-11-03T00:13:16.262Z,33.78
2023-11-03T00:15:44.758Z,34.12
2023-11-03T00:18:13.388Z,34.41
2023-11-03T00:20:41.922Z,34.13
2023-11-03T00:23:10.413Z,34.81
2023-11-03T00:25:38.845Z,33.97
2023-11-03T00:28:07.360Z,33.75
2023-11-03T00:30:36.976Z,34.18
2023-11-03T00:33:07.143Z,33.47
2023-11-03T00:35:36.005Z,33.69
2023-11-03T00:38:04.534Z,32.94
2023-11-03T00:40:33.001Z,33.49
2023-11-03T00:43:04.220Z,32.85
2023-11-03T00:45:33.046Z,33.42
2023-11-03T00:48:01.605Z,33.09
2023-11-03T00:50:30.136Z,33.51
2023-11-03T00:52:58.586Z,34.25
2023-11-03T00:55:27.058Z,33.11
2023-11-03T00:57:55.925Z,32.98
2023-11-03T01:00:26.857Z,34.39
2023-11-03T01:02:55.452Z,34.25
2023-11-03T01:05:25.221Z,33.33
2023-11-03T01:07:54.110Z,34.04
2023-11-03T01:10:23.869Z,33.80
2023-11-03T01:12:52.513Z,33.31
2023-11-03T01:15:20.965Z,34.50
2023-11-03T01:17:52.492Z,33.29
2023-11-03T01:20:21.275Z,33.41
2023-11-03T01:22:49.849Z,34.08
2023-11-03T01:25:18.376Z,33.81
2023-11-03T01:27:46.916Z,33.80
2023-11-03T01:30:17.309Z,33.13
2023-11-03T01:32:46.045Z,33.42
2023-11-03T01:35:14.727Z,33.62
2023-11-03T01:37:46.679Z,33.46
2023-11-03T01:40:16.061Z,33.27
2023-11-03T01:42:44.902Z,32.51
2023-11-03T01:45:13.496Z,32.55
2023-11-03T01:47:42.105Z,32.69
2023-11-03T01:50:11.532Z,32.66
2023-11-03T01:52:41.881Z,33.37
2023-11-03T01:55:12.413Z,32.92
2023-11-03T01:57:41.601Z,33.20
2023-11-03T02:00:14.524Z,32.76
2023-11-03T02:02:44.948Z,32.76
2023-11-03T02:05:13.455Z,32.44
2023-11-03T02:07:41.929Z,33.68
2023-11-03T02:10:10.575Z,33.76
2023-11-03T02:12:39.029Z,33.15
2023-11-03T02:15:07.814Z,33.28
2023-11-03T02:17:36.940Z,34.33
2023-11-03T02:20:09.372Z,33.32
2023-11-03T02:22:39.354Z,33.27
2023-11-03T02:25:08.376Z,34.39
2023-11-03T02:27:36.981Z,33.90
2023-11-03T02:30:06.157Z,33.66
2023-11-03T02:32:34.628Z,32.75
2023-11-03T02:35:04.350Z,32.63
2023-11-03T02:37:32.824Z,33.89
2023-11-03T02:40:01.352Z,34.27
2023-11-03T02:42:29.765Z,34.13
2023-11-03T02:44:58.265Z,33.67
2023-11-03T02:47:26.737Z,32.54
2023-11-03T02:49:55.155Z,32.37
2023-11-03T02:52:23.670Z,32.43
2023-11-03T02:54:52.199Z,32.74
2023-11-03T02:57:20.646Z,32.47
2023-11-03T02:59:49.072Z,32.69
2023-11-03T03:02:17.568Z,32.78
2023-11-03T03:04:47.177Z,32.29
2023-11-03T03:07:15.901Z,32.48
2023-11-03T03:09:44.489Z,32.79
2023-11-03T03:12:13.036Z,33.67
2023-11-03T03:14:41.524Z,32.45
2023-11-03T03:17:09.936Z,33.65
2023-11-03T03:19:38.460Z,33.83
2023-11-03T03:22:06.967Z,33.19
2023-11-03T03:24:35.623Z,33.26
2023-11-03T03:27:04.154Z,32.95
2023-11-03T03:29:32.948Z,33.24
2023-11-03T03:32:01.423Z,32.67
2023-11-03T03:34:30.045Z,32.98
2023-11-03T03:36:58.705Z,33.04
2023-11-03T03:39:27.260Z,33.42
2023-11-03T03:41:55.732Z,33.23
2023-11-03T03:44:24.203Z,35.19
2023-11-03T03:46:52.953Z,34.29
2023-11-03T03:49:21.591Z,33.91
2023-11-03T03:51:50.124Z,33.79
2023-11-03T03:54:18.554Z,33.44
2023-11-03T03:56:47.010Z,33.02
2023-11-03T03:59:15.493Z,32.66
2023-11-03T04:01:44.430Z,33.08
2023-11-03T04:04:13.480Z,33.51
2023-11-03T04:06:44.698Z,33.02
2023-11-03T04:09:13.644Z,32.58
2023-11-03T04:11:42.154Z,32.67
2023-11-03T04:14:10.580Z,32.67
2023-11-03T04:16:39.026Z,34.07
2023-11-03T04:19:07.799Z,33.14
2023-11-03T04:21:36.281Z,33.36
2023-11-03T04:24:05.210Z,32.63
2023-11-03T04:26:33.690Z,33.83
2023-11-03T04:29:02.318Z,33.49
2023-11-03T04:31:30.715Z,33.79
2023-11-03T04:33:59.388Z,33.86
2023-11-03T04:36:28.017Z,33.42
2023-11-03T04:38:56.505Z,33.62
2023-11-03T04:41:25.039Z,34.69
2023-11-03T04:43:53.501Z,34.58
2023-11-03T04:46:21.963Z,34.35
2023-11-03T04:48:50.969Z,34.22
2023-11-03T04:51:19.504Z,33.96
2023-11-03T04:53:48.003Z,33.96
2023-11-03T04:56:16.558Z,33.97
2023-11-03T04:58:45.011Z,34.70
2023-11-03T05:01:14.661Z,35.00
2023-11-03T05:03:44.243Z,34.73
2023-11-03T05:06:13.268Z,34.44
2023-11-03T05:08:42.081Z,34.53
2023-11-03T05:11:11.708Z,34.51
2023-11-03T05:13:42.372Z,34.74
2023-11-03T05:16:10.929Z,35.39
2023-11-03T05:18:40.004Z,34.88
2023-11-03T05:21:12.583Z,35.02
2023-11-03T05:23:41.232Z,34.86
2023-11-03T05:26:15.488Z,35.47
2023-11-03T05:28:44.276Z,35.20
2023-11-03T05:31:13.678Z,34.78
2023-11-03T05:33:42.345Z,34.69
2023-11-03T05:36:12.401Z,35.16
2023-11-03T05:38:41.257Z,34.27
2023-11-03T05:41:09.826Z,35.74
2023-11-03T05:43:38.444Z,35.95
2023-11-03T05:46:07.099Z,35.31
2023-11-03T05:48:35.639Z,35.52
2023-11-03T05:51:05.153Z,35.64
2023-11-03T05:53:33.728Z,36.94
2023-11-03T05:56:02.248Z,35.62
2023-11-03T05:58:31.538Z,35.15
2023-11-03T06:01:00.022Z,35.01
2023-11-03T06:03:28.640Z,34.93
2023-11-03T06:05:57.192Z,34.55
2023-11-03T06:08:25.742Z,35.32
2023-11-03T06:10:54.121Z,35.09
2023-11-03T06:13:22.532Z,34.85
2023-11-03T06:15:51.193Z,36.13
2023-11-03T06:18:19.689Z,35.27
2023-11-03T06:20:48.153Z,34.43
2023-11-03T06:23:17.589Z,34.52
2023-11-03T06:25:46.052Z,34.43
2023-11-03T06:28:14.766Z,35.02
2023-11-03T06:30:44.060Z,34.52
2023-11-03T06:33:12.669Z,34.28
2023-11-03T06:35:41.118Z,34.61
2023-11-03T06:38:09.651Z,34.96
2023-11-03T06:40:38.205Z,34.77
2023-11-03T06:43:07.330Z,35.01
2023-11-03T06:45:35.981Z,34.61
2023-11-03T06:48:04.643Z,35.33
2023-11-03T06:50:33.188Z,35.59
2023-11-03T06:53:01.671Z,35.12
2023-11-03T06:55:31.077Z,35.61
2023-11-03T06:57:59.645Z,35.27
2023-11-03T07:00:28.437Z,35.84
2023-11-03T07:02:57.808Z,36.39
2023-11-03T07:05:26.811Z,35.75
2023-11-03T07:07:56.207Z,35.29
2023-11-03T07:10:25.766Z,35.90
2023-11-03T07:12:54.473Z,34.89
2023-11-03T07:15:23.765Z,35.11
2023-11-03T07:17:52.853Z,35.12
2023-11-03T07:20:21.348Z,35.08
2023-11-03T07:22:50.526Z,34.70
2023-11-03T07:25:20.945Z,37.00
2023-11-03T07:27:49.472Z,35.09
2023-11-03T07:30:18.012Z,35.63
2023-11-03T07:32:46.737Z,35.24
2023-11-03T07:35:15.839Z,34.74
2023-11-03T07:37:44.478Z,34.54
2023-11-03T07:40:15.865Z,35.70
2023-11-03T07:42:44.539Z,34.80
2023-11-03T07:45:14.602Z,34.20
2023-11-03T07:47:43.119Z,34.37
2023-11-03T07:50:11.786Z,34.82
2023-11-03T07:52:40.267Z,34.19
2023-11-03T07:55:09.056Z,35.25
2023-11-03T07:57:39.801Z,34.85
2023-11-03T08:00:10.895Z,34.68
2023-11-03T08:02:39.635Z,34.25
2023-11-03T08:05:09.336Z,35.03
2023-11-03T08:07:38.706Z,34.67
2023-11-03T08:10:12.270Z,34.36
2023-11-03T08:12:41.073Z,35.03
2023-11-03T08:15:15.004Z,35.59
2023-11-03T08:17:45.746Z,34.75
2023-11-03T08:20:17.186Z,35.63
2023-11-03T08:22:49.372Z,35.02
2023-11-03T08:25:19.129Z,35.41
2023-11-03T08:27:47.968Z,35.43
2023-11-03T08:30:16.675Z,34.41
2023-11-03T08:32:47.962Z,34.55
2023-11-03T08:35:16.988Z,34.18
2023-11-03T08:37:45.644Z,34.06
2023-11-03T08:40:17.796Z,35.97
2023-11-03T08:42:47.958Z,34.97
2023-11-03T08:45:18.536Z,34.96
2023-11-03T08:47:47.562Z,34.72
2023-11-03T08:50:17.237Z,35.21
2023-11-03T08:52:46.549Z,34.69
2023-11-03T08:55:15.650Z,34.14
2023-11-03T08:57:44.530Z,34.58
2023-11-03T09:00:17.489Z,35.06
2023-11-03T09:02:47.579Z,34.17
2023-11-03T09:05:17.358Z,34.26
2023-11-03T09:07:46.868Z,33.08
2023-11-03T09:10:16.668Z,34.49
2023-11-03T09:12:45.591Z,34.70
2023-11-03T09:15:14.206Z,34.10
2023-11-03T09:17:45.841Z,35.03
2023-11-03T09:20:16.256Z,35.42
2023-11-03T09:22:45.166Z,34.88
2023-11-03T09:25:13.854Z,33.90
2023-11-03T09:27:43.117Z,35.18
2023-11-03T09:30:12.088Z,33.72
2023-11-03T09:32:44.309Z,34.33
2023-11-03T09:35:12.686Z,33.16
2023-11-03T09:37:41.427Z,33.70
2023-11-03T09:40:11.337Z,33.56
2023-11-03T09:42:42.533Z,33.93
2023-11-03T09:45:16.583Z,33.88
2023-11-03T09:47:47.713Z,34.43
2023-11-03T09:50:16.501Z,33.48
2023-11-03T09:52:50.636Z,33.68
2023-11-03T09:55:21.377Z,32.88
2023-11-03T09:57:56.170Z,33.41
2023-11-03T10:00:26.633Z,32.33
2023-11-03T10:02:55.490Z,32.91
2023-11-03T10:05:26.624Z,32.59
2023-11-03T10:08:10.525Z,32.95
2023-11-03T10:10:40.301Z,32.28
2023-11-03T10:13:10.612Z,33.14
2023-11-03T10:15:41.268Z,32.88
2023-11-03T10:18:11.439Z,32.83
2023-11-03T10:20:42.556Z,32.86
2023-11-03T10:23:11.373Z,32.81
2023-11-03T10:25:40.417Z,32.51
2023-11-03T10:28:09.539Z,31.85
2023-11-03T10:30:38.629Z,31.86
2023-11-03T10:33:07.982Z,32.53
2023-11-03T10:35:36.850Z,32.49
2023-11-03T10:38:05.391Z,32.30
2023-11-03T10:40:34.013Z,33.05
2023-11-03T10:43:06.551Z,32.59
2023-11-03T10:45:39.300Z,32.68
2023-11-03T10:48:17.694Z,31.88
2023-11-03T10:51:00.972Z,32.14
2023-11-03T10:54:02.344Z,31.65
2023-11-03T10:56:48.534Z,32.28
2023-11-03T10:59:30.226Z,31.93
2023-11-03T11:02:12.219Z,32.24
2023-11-03T11:04:53.149Z,32.18
2023-11-03T11:07:23.988Z,31.65
2023-11-03T11:09:54.162Z,31.31
2023-11-03T11:12:22.629Z,31.97
2023-11-03T11:14:52.876Z,31.81
2023-11-03T11:17:24.284Z,31.16
2023-11-03T11:19:53.517Z,31.14
2023-11-03T11:22:24.928Z,31.00
2023-11-03T11:24:55.732Z,31.41
2023-11-03T11:27:27.298Z,31.93
2023-11-03T11:30:15.825Z,31.28
2023-11-03T11:32:52.692Z,30.82
2023-11-03T11:35:24.462Z,31.16
2023-11-03T11:37:53.026Z,31.74
2023-11-03T11:40:21.553Z,31.75
2023-11-03T11:42:50.559Z,31.62
2023-11-03T11:45:19.875Z,31.98
2023-11-03T11:47:49.463Z,31.46
2023-11-03T11:50:19.116Z,31.52
2023-11-03T11:52:52.054Z,31.56
2023-11-03T11:55:20.975Z,31.14
2023-11-03T11:57:51.832Z,32.06
2023-11-03T12:00:21.390Z,31.38
2023-11-03T12:02:55.076Z,30.96
2023-11-03T12:05:25.406Z,31.01
2023-11-03T12:07:56.172Z,31.77
2023-11-03T12:10:25.902Z,31.15
2023-11-03T12:12:54.399Z,30.84
2023-11-03T12:15:22.881Z,30.68
2023-11-03T12:17:51.448Z,30.98
2023-11-03T12:20:21.069Z,32.00
2023-11-03T12:22:49.651Z,32.83
2023-11-03T12:25:18.356Z,31.70
2023-11-03T12:27:55.230Z,30.95
2023-11-03T12:30:23.819Z,31.04
2023-11-03T12:32:52.804Z,30.99
2023-11-03T12:35:21.611Z,31.08
2023-11-03T12:37:50.326Z,30.37
2023-11-03T12:40:24.099Z,30.31
2023-11-03T12:42:54.532Z,29.88
2023-11-03T12:45:23.168Z,29.77
2023-11-03T12:47:52.069Z,30.55
2023-11-03T12:50:27.491Z,30.20
2023-11-03T12:52:55.948Z,30.32
2023-11-03T12:55:27.463Z,30.77
2023-11-03T12:57:58.404Z,29.68
2023-11-03T13:00:32.769Z,29.61
2023-11-03T13:03:01.476Z,29.14
2023-11-03T13:05:30.427Z,29.51
2023-11-03T13:08:01.967Z,29.27
2023-11-03T13:10:33.251Z,29.24
2023-11-03T13:13:02.149Z,29.45
2023-11-03T13:15:32.102Z,29.06
2023-11-03T13:18:01.084Z,29.42
2023-11-03T13:20:29.707Z,29.25
2023-11-03T13:23:03.077Z,29.14
2023-11-03T13:25:31.712Z,28.56
2023-11-03T13:28:00.537Z,28.61
2023-11-03T13:30:29.094Z,29.55
2023-11-03T13:32:57.826Z,29.03
2023-11-03T13:35:27.442Z,29.55
2023-11-03T13:37:56.125Z,29.16
2023-11-03T13:40:27.244Z,28.80
2023-11-03T13:42:57.727Z,28.64
2023-11-03T13:45:26.264Z,28.30
2023-11-03T13:47:56.356Z,27.99
2023-11-03T13:50:25.803Z,28.02
2023-11-03T13:52:54.573Z,27.73
2023-11-03T13:55:25.144Z,27.71
2023-11-03T13:57:57.615Z,28.14
2023-11-03T14:00:28.117Z,28.40
2023-11-03T14:02:56.650Z,27.83
2023-11-03T14:05:25.311Z,28.33
2023-11-03T14:07:56.745Z,28.20
2023-11-03T14:10:25.371Z,27.93
2023-11-03T14:12:53.877Z,27.68
2023-11-03T14:15:24.279Z,27.94
2023-11-03T14:17:53.274Z,28.51
2023-11-03T14:20:22.818Z,28.19
2023-11-03T14:22:51.312Z,28.48
2023-11-03T14:25:19.935Z,28.92
2023-11-03T14:27:49.810Z,28.27
2023-11-03T14:30:21.543Z,27.59
2023-11-03T14:32:50.069Z,28.14
2023-11-03T14:35:18.782Z,28.01
2023-11-03T14:37:48.461Z,28.75
2023-11-03T14:40:18.592Z,27.93
2023-11-03T14:42:48.679Z,27.82
2023-11-03T14:45:21.057Z,28.06
2023-11-03T14:47:50.290Z,27.90
2023-11-03T14:50:20.267Z,27.81
2023-11-03T14:52:49.373Z,28.21
2023-11-03T14:55:18.341Z,28.38
2023-11-03T14:57:47.201Z,28.00
2023-11-03T15:00:17.707Z,28.35
2023-11-03T15:02:49.458Z,27.34
2023-11-03T15:05:18.571Z,28.44
2023-11-03T15:07:47.285Z,28.48
2023-11-03T15:10:16.818Z,28.37
2023-11-03T15:12:45.902Z,27.73
2023-11-03T15:15:16.968Z,27.70
2023-11-03T15:17:46.326Z,28.51
2023-11-03T15:20:16.085Z,28.00
2023-11-03T15:22:45.942Z,27.82
2023-11-03T15:25:17.087Z,28.75
2023-11-03T15:27:50.640Z,27.98
2023-11-03T15:30:20.979Z,28.13
2023-11-03T15:32:50.400Z,27.72
2023-11-03T15:35:22.105Z,27.86
2023-11-03T15:37:50.690Z,28.27
2023-11-03T15:40:20.716Z,28.16
2023-11-03T15:42:49.773Z,28.90
2023-11-03T15:45:18.845Z,29.44
2023-11-03T15:47:49.154Z,28.11
2023-11-03T15:50:20.504Z,28.44
2023-11-03T15:52:51.681Z,28.24
2023-11-03T15:55:20.599Z,28.48
2023-11-03T15:57:51.561Z,28.64
2023-11-03T16:00:24.105Z,28.48
2023-11-03T16:02:53.062Z,27.87
2023-11-03T16:05:21.741Z,28.17
2023-11-03T16:07:50.619Z,28.45
2023-11-03T16:10:20.063Z,29.04
2023-11-03T16:12:49.078Z,29.73
2023-11-03T16:15:18.170Z,29.28
2023-11-03T16:17:47.060Z,28.81
2023-11-03T16:20:18.371Z,28.07
2023-11-03T16:22:47.626Z,28.46
2023-11-03T16:25:16.772Z,28.41
2023-11-03T16:27:45.475Z,29.00
2023-11-03T16:30:17.791Z,28.14
2023-11-03T16:32:48.478Z,28.56
2023-11-03T16:35:17.182Z,28.28
2023-11-03T16:37:45.723Z,28.18
2023-11-03T16:40:14.521Z,28.65
2023-11-03T16:42:45.308Z,29.00
2023-11-03T16:45:14.191Z,28.39
2023-11-03T16:47:43.386Z,28.40
2023-11-03T16:50:13.178Z,28.72
2023-11-03T16:52:42.148Z,29.15
2023-11-03T16:55:15.435Z,28.50
2023-11-03T16:57:44.924Z,28.79
2023-11-03T17:00:19.424Z,28.67
2023-11-03T17:02:52.764Z,28.81
2023-11-03T17:05:22.404Z,28.43
2023-11-03T17:07:51.490Z,28.23
2023-11-03T17:10:20.063Z,28.47
2023-11-03T17:12:57.051Z,28.53
2023-11-03T17:15:30.889Z,28.77
2023-11-03T17:18:01.004Z,28.64
2023-11-03T17:20:30.213Z,28.41
2023-11-03T17:23:03.480Z,28.49
2023-11-03T17:25:32.242Z,28.81
2023-11-03T17:28:00.834Z,28.27
2023-11-03T17:30:29.550Z,28.12
2023-11-03T17:32:58.369Z,28.25
2023-11-03T17:35:27.324Z,28.71
2023-11-03T17:37:59.739Z,29.18
2023-11-03T17:40:30.305Z,28.77
2023-11-03T17:43:00.017Z,28.69
2023-11-03T17:45:28.791Z,28.90
2023-11-03T17:48:00.602Z,29.48
2023-11-03T17:50:29.362Z,29.53
2023-11-03T17:52:57.785Z,29.61
2023-11-03T17:55:26.916Z,29.81
2023-11-03T17:57:56.063Z,28.96
2023-11-03T18:00:25.835Z,29.93
2023-11-03T18:02:55.148Z,29.03
2023-11-03T18:05:25.360Z,29.42
2023-11-03T18:07:54.190Z,29.92
2023-11-03T18:10:23.277Z,30.18
2023-11-03T18:12:53.707Z,29.37
2023-11-03T18:15:24.217Z,29.02
2023-11-03T18:17:53.755Z,29.69
2023-11-03T18:20:24.404Z,29.43
2023-11-03T18:22:53.741Z,28.97
2023-11-03T18:25:23.974Z,28.90
2023-11-03T18:27:52.493Z,29.10
2023-11-03T18:30:23.497Z,28.71
2023-11-03T18:32:54.130Z,29.39
2023-11-03T18:35:22.790Z,29.51
2023-11-03T18:37:51.302Z,29.05
2023-11-03T18:40:23.268Z,29.44
2023-11-03T18:42:52.027Z,28.52
2023-11-03T18:45:20.705Z,29.08
2023-11-03T18:47:49.223Z,29.06
2023-11-03T18:52:52.025Z,29.14
2023-11-03T18:56:22.532Z,28.63
2023-11-03T18:58:48.014Z,29.16
2023-11-03T19:02:10.989Z,29.37
2023-11-03T19:08:49.737Z,29.24
2023-11-03T19:11:22.227Z,30.13
2023-11-03T19:13:51.914Z,30.06
2023-11-03T19:16:20.402Z,30.25
2023-11-03T19:18:49.044Z,29.49
2023-11-03T19:21:18.140Z,29.44
2023-11-03T19:23:46.645Z,29.27
2023-11-03T19:26:15.244Z,29.58
2023-11-03T19:28:48.219Z,29.74
2023-11-03T19:31:17.713Z,30.85
2023-11-03T19:33:46.326Z,30.02
2023-11-03T19:36:21.391Z,29.87
2023-11-03T19:38:50.666Z,30.56
2023-11-03T19:41:19.656Z,30.01
2023-11-03T19:43:48.158Z,29.85
2023-11-03T19:46:16.815Z,29.62
2023-11-03T19:48:47.394Z,30.19
2023-11-03T19:51:17.890Z,30.60
2023-11-03T19:53:46.396Z,30.08
2023-11-03T19:56:14.942Z,30.31
2023-11-03T19:58:43.446Z,29.94
2023-11-03T20:01:11.898Z,30.55
2023-11-03T20:03:41.108Z,29.84
2023-11-03T20:06:12.190Z,29.92
2023-11-03T20:08:42.585Z,30.57
2023-11-03T20:11:11.401Z,30.75
2023-11-03T20:13:40.808Z,29.72
2023-11-03T20:16:13.077Z,30.00
2023-11-03T20:18:41.909Z,29.62
2023-11-03T20:21:10.439Z,29.92
2023-11-03T20:23:39.544Z,29.27
2023-11-03T20:26:08.133Z,30.08
2023-11-03T20:28:37.201Z,29.68
2023-11-03T20:31:05.842Z,29.53
2023-11-03T20:33:34.511Z,29.50
2023-11-03T20:36:03.217Z,30.62
2023-11-03T20:38:31.728Z,30.25
2023-11-03T20:41:00.544Z,30.09
2023-11-03T20:43:30.106Z,30.10
2023-11-03T20:45:59.077Z,29.99
2023-11-03T20:48:28.736Z,30.26
2023-11-03T20:50:57.300Z,29.95
2023-11-03T20:53:26.051Z,30.68
2023-11-03T20:55:54.617Z,30.17
2023-11-03T20:58:23.207Z,29.99
2023-11-03T21:00:53.766Z,30.03
2023-11-03T21:03:23.591Z,29.99
2023-11-03T21:05:54.045Z,30.19
2023-11-03T21:08:22.570Z,29.84
2023-11-03T21:10:51.776Z,30.37
2023-11-03T21:13:20.288Z,30.14
2023-11-03T21:15:49.782Z,30.01
2023-11-03T21:18:18.655Z,30.07
2023-11-03T21:20:47.252Z,30.64
2023-11-03T21:23:15.748Z,30.22
2023-11-03T21:25:44.344Z,29.84
2023-11-03T21:28:14.471Z,30.53
2023-11-03T21:30:43.962Z,29.90
2023-11-03T21:33:12.560Z,29.83
2023-11-03T21:35:41.063Z,30.56
2023-11-03T21:38:09.523Z,30.25
2023-11-03T21:40:37.942Z,31.15
2023-11-03T21:43:06.934Z,30.95
2023-11-03T21:45:36.142Z,31.10
2023-11-03T21:48:06.212Z,31.17
2023-11-03T21:50:34.834Z,30.39
2023-11-03T21:53:03.210Z,30.36
2023-11-03T21:55:31.977Z,30.21
2023-11-03T21:58:01.288Z,30.90
2023-11-03T22:00:29.749Z,31.25
2023-11-03T22:02:58.309Z,31.53
2023-11-03T22:05:26.927Z,31.18
2023-11-03T22:07:56.183Z,30.94
2023-11-03T22:10:24.955Z,30.98
2023-11-03T22:12:53.695Z,30.69
2023-11-03T22:15:22.189Z,31.51
2023-11-03T22:17:56.226Z,31.29
2023-11-03T22:20:26.769Z,31.32
2023-11-03T22:22:56.236Z,31.21
2023-11-03T22:25:24.977Z,31.56
2023-11-03T22:27:53.680Z,30.99
2023-11-03T22:30:22.415Z,30.85
2023-11-03T22:32:51.110Z,30.78
2023-11-03T22:35:20.098Z,31.62
2023-11-03T22:37:48.580Z,31.54
2023-11-03T22:40:17.246Z,30.82
2023-11-03T22:42:46.560Z,30.77
2023-11-03T22:45:15.298Z,30.74
2023-11-03T22:47:43.892Z,31.03
2023-11-03T22:50:15.592Z,30.99
2023-11-03T22:52:44.228Z,31.02
2023-11-03T22:55:13.489Z,31.12
2023-11-03T22:57:42.399Z,30.81
2023-11-03T23:00:12.861Z,30.81
2023-11-03T23:02:42.043Z,30.91
2023-11-03T23:05:10.691Z,30.77
2023-11-03T23:07:39.452Z,30.42
2023-11-03T23:10:12.923Z,31.21
2023-11-03T23:12:42.501Z,31.62
2023-11-03T23:15:12.053Z,31.85
2023-11-03T23:17:43.849Z,30.85
2023-11-03T23:20:17.120Z,31.19
2023-11-03T23:22:46.177Z,30.74
2023-11-03T23:25:14.932Z,30.61
2023-11-03T23:27:44.304Z,30.97
2023-11-03T23:30:13.400Z,31.25
2023-11-03T23:32:42.254Z,31.29
2023-11-03T23:35:11.011Z,31.56
2023-11-03T23:37:39.543Z,31.67
2023-11-03T23:40:10.079Z,31.24
2023-11-03T23:42:39.680Z,31.48
2023-11-03T23:45:09.024Z,31.33
2023-11-03T23:47:38.046Z,30.98
2023-11-03T23:50:08.533Z,31.77
2023-11-03T23:52:37.146Z,31.54
2023-11-03T23:55:06.907Z,32.08
2023-11-03T23:57:35.539Z,31.89
